JBU693 KLGB-KCAE
Flight info
| Callsign | JBU693 |
|---|---|
| Flight time | N/A |
| Altitude | 35000 |
| Route | FRITR3 AVRRY LANCY DRK ABQ PNH FSM MEM |
| Aircraft | A321/M-SDE3FGHIRWY/LB1 |
Departure
| Time | 2026-05-05 02:50 |
|---|---|
| Airport | Long Beach International Airport (KLGB) |
Arrival
| Time | N/A |
|---|---|
| Airport | Columbia Metropolitan Airport (KCAE) |
| Time | Latitude | Longitude | Altitude | Speed | Heading |
|---|---|---|---|---|---|
| 2026-05-05 02:17 | 33.81899 | -118.14601 | 53 ft | 0 kts | 90° |
| 2026-05-05 02:34 | 33.81899 | -118.14603 | 53 ft | 1 kts | 90° |
| 2026-05-05 02:34 | 33.81899 | -118.14624 | 54 ft | 3 kts | 94° |
| 2026-05-05 02:34 | 33.81902 | -118.14648 | 51 ft | 3 kts | 101° |
| 2026-05-05 02:34 | 33.81907 | -118.14670 | 49 ft | 3 kts | 113° |
| 2026-05-05 02:35 | 33.81916 | -118.14691 | 51 ft | 3 kts | 139° |
| 2026-05-05 02:35 | 33.81929 | -118.14700 | 55 ft | 2 kts | 179° |
| 2026-05-05 02:35 | 33.81935 | -118.14700 | 52 ft | 1 kts | 180° |
| 2026-05-05 02:39 | 33.81923 | -118.14700 | 55 ft | 3 kts | 180° |
| 2026-05-05 02:39 | 33.81887 | -118.14700 | 58 ft | 7 kts | 180° |
| 2026-05-05 02:40 | 33.81868 | -118.14700 | 56 ft | 0 kts | 180° |
| 2026-05-05 02:41 | 33.81866 | -118.14700 | 56 ft | 2 kts | 180° |
| 2026-05-05 02:41 | 33.81840 | -118.14700 | 55 ft | 6 kts | 180° |
| 2026-05-05 02:42 | 33.81835 | -118.14700 | 53 ft | 0 kts | 180° |
| 2026-05-05 02:43 | 33.81834 | -118.14700 | 53 ft | 1 kts | 180° |
| 2026-05-05 02:43 | 33.81816 | -118.14700 | 53 ft | 4 kts | 180° |
| 2026-05-05 02:43 | 33.81776 | -118.14701 | 49 ft | 7 kts | 180° |
| 2026-05-05 02:44 | 33.81720 | -118.14701 | 54 ft | 8 kts | 180° |
| 2026-05-05 02:44 | 33.81661 | -118.14702 | 52 ft | 9 kts | 180° |
| 2026-05-05 02:44 | 33.81601 | -118.14702 | 55 ft | 9 kts | 180° |
| 2026-05-05 02:44 | 33.81540 | -118.14660 | 53 ft | 12 kts | 135° |
| 2026-05-05 02:45 | 33.81476 | -118.14584 | 52 ft | 14 kts | 135° |
| 2026-05-05 02:45 | 33.81404 | -118.14497 | 55 ft | 14 kts | 135° |
| 2026-05-05 02:45 | 33.81343 | -118.14423 | 56 ft | 11 kts | 135° |
| 2026-05-05 02:45 | 33.81280 | -118.14346 | 51 ft | 15 kts | 134° |
| 2026-05-05 02:46 | 33.81199 | -118.14248 | 53 ft | 18 kts | 135° |
| 2026-05-05 02:46 | 33.81107 | -118.14138 | 50 ft | 20 kts | 135° |
| 2026-05-05 02:46 | 33.81010 | -118.14021 | 48 ft | 10 kts | 135° |
| 2026-05-05 02:46 | 33.80977 | -118.13981 | 47 ft | 8 kts | 135° |
| 2026-05-05 02:47 | 33.80929 | -118.13922 | 44 ft | 12 kts | 134° |
| 2026-05-05 02:47 | 33.80863 | -118.13841 | 39 ft | 11 kts | 134° |
| 2026-05-05 02:47 | 33.80833 | -118.13805 | 38 ft | 6 kts | 135° |
| 2026-05-05 02:47 | 33.80791 | -118.13763 | 37 ft | 9 kts | 155° |
| 2026-05-05 02:48 | 33.80760 | -118.13764 | 36 ft | 4 kts | 204° |
| 2026-05-05 02:48 | 33.80758 | -118.13764 | 36 ft | 0 kts | 206° |
| 2026-05-05 02:48 | 33.80753 | -118.13768 | 35 ft | 3 kts | 207° |
| 2026-05-05 02:48 | 33.80722 | -118.13806 | 32 ft | 8 kts | 243° |
| 2026-05-05 02:49 | 33.80735 | -118.13872 | 33 ft | 9 kts | 309° |
| 2026-05-05 02:49 | 33.80848 | -118.14012 | 41 ft | 54 kts | 314° |
| 2026-05-05 02:49 | 33.81269 | -118.14522 | 52 ft | 118 kts | 315° |
| 2026-05-05 02:49 | 33.81972 | -118.15395 | 58 ft | 169 kts | 310° |
| 2026-05-05 02:50 | 33.82840 | -118.16477 | 444 ft | 183 kts | 307° |
| 2026-05-05 02:50 | 33.83693 | -118.17620 | 1172 ft | 184 kts | 307° |
| 2026-05-05 02:50 | 33.84489 | -118.18894 | 1438 ft | 202 kts | 292° |
| 2026-05-05 02:50 | 33.84573 | -118.20640 | 1504 ft | 226 kts | 253° |
| 2026-05-05 02:51 | 33.83630 | -118.22227 | 1869 ft | 244 kts | 216° |
| 2026-05-05 02:51 | 33.81981 | -118.22849 | 2407 ft | 262 kts | 181° |
| 2026-05-05 02:51 | 33.80245 | -118.22174 | 3165 ft | 267 kts | 150° |
| 2026-05-05 02:51 | 33.78787 | -118.20807 | 3938 ft | 272 kts | 141° |
| 2026-05-05 02:52 | 33.77238 | -118.19540 | 4715 ft | 269 kts | 165° |
| 2026-05-05 02:52 | 33.75381 | -118.19401 | 5351 ft | 270 kts | 185° |
| 2026-05-05 02:52 | 33.73481 | -118.19389 | 6023 ft | 276 kts | 174° |
| 2026-05-05 02:52 | 33.71684 | -118.18578 | 6782 ft | 282 kts | 146° |
| 2026-05-05 02:53 | 33.70358 | -118.16841 | 7476 ft | 287 kts | 121° |
| 2026-05-05 02:53 | 33.69404 | -118.14719 | 8190 ft | 290 kts | 120° |
| 2026-05-05 02:53 | 33.68444 | -118.12584 | 8907 ft | 292 kts | 121° |
| 2026-05-05 02:53 | 33.67466 | -118.10431 | 9625 ft | 295 kts | 121° |
| 2026-05-05 02:54 | 33.66472 | -118.08256 | 10245 ft | 301 kts | 122° |
| 2026-05-05 02:54 | 33.65492 | -118.05929 | 10401 ft | 325 kts | 115° |
| 2026-05-05 02:54 | 33.64782 | -118.03297 | 10536 ft | 348 kts | 104° |
| 2026-05-05 02:54 | 33.64447 | -118.00334 | 10669 ft | 369 kts | 93° |
| 2026-05-05 02:55 | 33.64444 | -117.97179 | 10852 ft | 386 kts | 91° |
| 2026-05-05 02:55 | 33.64450 | -117.93928 | 11314 ft | 392 kts | 91° |
| 2026-05-05 02:55 | 33.64450 | -117.90629 | 11841 ft | 397 kts | 91° |
| 2026-05-05 02:55 | 33.64443 | -117.87296 | 12425 ft | 402 kts | 92° |
| 2026-05-05 02:56 | 33.64430 | -117.83929 | 13007 ft | 406 kts | 92° |
| 2026-05-05 02:56 | 33.64416 | -117.80533 | 13587 ft | 410 kts | 92° |
| 2026-05-05 02:56 | 33.64397 | -117.77097 | 14135 ft | 413 kts | 92° |
| 2026-05-05 02:56 | 33.64356 | -117.73631 | 14663 ft | 417 kts | 93° |
| 2026-05-05 02:57 | 33.64297 | -117.70141 | 15191 ft | 421 kts | 94° |
| 2026-05-05 02:57 | 33.64228 | -117.66610 | 15724 ft | 424 kts | 94° |
| 2026-05-05 02:57 | 33.64159 | -117.63104 | 16261 ft | 428 kts | 94° |
| 2026-05-05 02:57 | 33.64091 | -117.59521 | 16798 ft | 432 kts | 94° |
| 2026-05-05 02:58 | 33.64027 | -117.55905 | 17333 ft | 435 kts | 94° |
| 2026-05-05 02:58 | 33.63966 | -117.52263 | 17860 ft | 439 kts | 94° |
| 2026-05-05 02:58 | 33.63903 | -117.48590 | 18377 ft | 442 kts | 95° |
| 2026-05-05 02:58 | 33.63839 | -117.44888 | 18776 ft | 446 kts | 95° |
| 2026-05-05 02:59 | 33.63773 | -117.41158 | 19166 ft | 450 kts | 95° |
| 2026-05-05 02:59 | 33.63700 | -117.37388 | 19561 ft | 453 kts | 95° |
| 2026-05-05 02:59 | 33.63627 | -117.33590 | 19888 ft | 457 kts | 95° |
| 2026-05-05 02:59 | 33.63556 | -117.29759 | 20274 ft | 461 kts | 95° |
| 2026-05-05 03:00 | 33.63483 | -117.25893 | 20662 ft | 465 kts | 95° |
| 2026-05-05 03:00 | 33.63410 | -117.22053 | 21017 ft | 469 kts | 95° |
| 2026-05-05 03:00 | 33.63331 | -117.18131 | 21382 ft | 472 kts | 95° |
| 2026-05-05 03:00 | 33.63244 | -117.14178 | 21713 ft | 476 kts | 96° |
| 2026-05-05 03:01 | 33.63150 | -117.10198 | 22075 ft | 479 kts | 96° |
| 2026-05-05 03:01 | 33.63051 | -117.06189 | 22431 ft | 483 kts | 96° |
| 2026-05-05 03:01 | 33.62949 | -117.02145 | 22766 ft | 486 kts | 96° |
| 2026-05-05 03:01 | 33.62842 | -116.98066 | 23041 ft | 492 kts | 96° |
| 2026-05-05 03:02 | 33.62734 | -116.93953 | 23348 ft | 496 kts | 97° |
| 2026-05-05 03:02 | 33.62632 | -116.89855 | 23665 ft | 499 kts | 96° |
| 2026-05-05 03:02 | 33.62530 | -116.85678 | 23903 ft | 502 kts | 97° |
| 2026-05-05 03:02 | 33.62424 | -116.81482 | 24231 ft | 504 kts | 97° |
| 2026-05-05 03:03 | 33.62313 | -116.77267 | 24489 ft | 507 kts | 97° |
| 2026-05-05 03:03 | 33.62201 | -116.73031 | 24771 ft | 510 kts | 97° |
| 2026-05-05 03:03 | 33.62090 | -116.68766 | 25056 ft | 513 kts | 97° |
| 2026-05-05 03:03 | 33.61977 | -116.64482 | 25321 ft | 515 kts | 98° |
| 2026-05-05 03:04 | 33.61862 | -116.60175 | 25566 ft | 518 kts | 98° |
| 2026-05-05 03:04 | 33.61743 | -116.55846 | 25872 ft | 521 kts | 98° |
| 2026-05-05 03:04 | 33.61621 | -116.51557 | 26092 ft | 523 kts | 98° |
| 2026-05-05 03:04 | 33.61494 | -116.47179 | 26323 ft | 526 kts | 98° |
| 2026-05-05 03:05 | 33.61368 | -116.42790 | 26605 ft | 529 kts | 99° |
| 2026-05-05 03:05 | 33.61239 | -116.38368 | 26872 ft | 531 kts | 99° |
| 2026-05-05 03:05 | 33.61110 | -116.33942 | 27140 ft | 532 kts | 99° |
| 2026-05-05 03:05 | 33.60983 | -116.29502 | 27490 ft | 532 kts | 99° |
| 2026-05-05 03:06 | 33.60865 | -116.25073 | 27853 ft | 531 kts | 99° |
| 2026-05-05 03:06 | 33.60752 | -116.20635 | 28100 ft | 534 kts | 100° |
| 2026-05-05 03:06 | 33.60678 | -116.17679 | 28290 ft | 535 kts | 100° |
| 2026-05-05 03:06 | 33.60564 | -116.13215 | 28619 ft | 536 kts | 100° |
| 2026-05-05 03:07 | 33.60493 | -116.08743 | 28944 ft | 541 kts | 97° |
| 2026-05-05 03:07 | 33.61100 | -116.02727 | 29354 ft | 557 kts | 84° |
| 2026-05-05 03:07 | 33.62224 | -115.98239 | 29694 ft | 567 kts | 74° |
| 2026-05-05 03:07 | 33.63644 | -115.93817 | 29950 ft | 568 kts | 74° |
| 2026-05-05 03:08 | 33.65056 | -115.89383 | 30183 ft | 570 kts | 75° |
| 2026-05-05 03:08 | 33.65985 | -115.86440 | 30406 ft | 569 kts | 74° |
| 2026-05-05 03:08 | 33.67379 | -115.82009 | 30792 ft | 567 kts | 74° |
| 2026-05-05 03:08 | 33.68772 | -115.77583 | 31139 ft | 566 kts | 74° |
| 2026-05-05 03:09 | 33.70160 | -115.73169 | 31449 ft | 565 kts | 74° |
| 2026-05-05 03:09 | 33.71546 | -115.68752 | 31756 ft | 565 kts | 74° |
| 2026-05-05 03:09 | 33.73378 | -115.62908 | 32138 ft | 564 kts | 75° |
| 2026-05-05 03:09 | 33.74759 | -115.58496 | 32364 ft | 566 kts | 75° |
| 2026-05-05 03:10 | 33.75703 | -115.55507 | 32513 ft | 567 kts | 74° |
| 2026-05-05 03:10 | 33.77149 | -115.51167 | 32749 ft | 567 kts | 72° |
| 2026-05-05 03:10 | 33.78695 | -115.46799 | 32943 ft | 568 kts | 71° |
| 2026-05-05 03:10 | 33.80293 | -115.42452 | 33188 ft | 569 kts | 70° |
| 2026-05-05 03:11 | 33.81907 | -115.38113 | 33455 ft | 569 kts | 70° |
| 2026-05-05 03:11 | 33.83510 | -115.33768 | 33735 ft | 568 kts | 71° |
| 2026-05-05 03:11 | 33.85594 | -115.27989 | 33981 ft | 569 kts | 72° |
| 2026-05-05 03:11 | 33.86640 | -115.25030 | 34087 ft | 570 kts | 73° |
| 2026-05-05 03:12 | 33.88181 | -115.20632 | 34303 ft | 570 kts | 73° |
| 2026-05-05 03:12 | 33.89691 | -115.16301 | 34541 ft | 569 kts | 73° |
| 2026-05-05 03:12 | 33.91213 | -115.11917 | 34772 ft | 569 kts | 73° |
| 2026-05-05 03:13 | 33.94278 | -115.03120 | 34872 ft | 570 kts | 72° |
| 2026-05-05 03:13 | 33.97375 | -114.94313 | 34873 ft | 573 kts | 72° |
| 2026-05-05 03:14 | 34.00484 | -114.85475 | 34872 ft | 573 kts | 72° |
| 2026-05-05 03:14 | 34.03551 | -114.76669 | 34871 ft | 573 kts | 73° |
| 2026-05-05 03:15 | 34.06621 | -114.67803 | 34861 ft | 573 kts | 73° |
| 2026-05-05 03:15 | 34.09692 | -114.58930 | 34864 ft | 573 kts | 73° |
| 2026-05-05 03:16 | 34.12759 | -114.50049 | 34872 ft | 574 kts | 73° |
| 2026-05-05 03:16 | 34.15828 | -114.41156 | 34873 ft | 574 kts | 73° |
| 2026-05-05 03:17 | 34.18866 | -114.32317 | 34848 ft | 574 kts | 73° |
| 2026-05-05 03:17 | 34.21925 | -114.23390 | 34856 ft | 575 kts | 73° |
| 2026-05-05 03:18 | 34.24978 | -114.14448 | 34862 ft | 576 kts | 73° |
| 2026-05-05 03:18 | 34.27952 | -114.05465 | 34851 ft | 574 kts | 76° |
| 2026-05-05 03:19 | 34.31656 | -113.91972 | 34892 ft | 571 kts | 79° |
| 2026-05-05 03:19 | 34.34012 | -113.82854 | 34886 ft | 572 kts | 79° |
| 2026-05-05 03:20 | 34.36488 | -113.73766 | 34853 ft | 573 kts | 78° |
| 2026-05-05 03:20 | 34.39041 | -113.64635 | 34874 ft | 572 kts | 78° |
| 2026-05-05 03:21 | 34.41563 | -113.55502 | 34879 ft | 572 kts | 78° |
| 2026-05-05 03:21 | 34.44043 | -113.46357 | 34881 ft | 571 kts | 78° |
| 2026-05-05 03:22 | 34.46513 | -113.37211 | 34853 ft | 571 kts | 79° |
| 2026-05-05 03:22 | 34.48962 | -113.28117 | 34866 ft | 571 kts | 78° |
| 2026-05-05 03:23 | 34.51433 | -113.18953 | 34884 ft | 572 kts | 78° |
| 2026-05-05 03:23 | 34.53899 | -113.09784 | 34852 ft | 572 kts | 78° |
| 2026-05-05 03:24 | 34.56357 | -113.00607 | 34867 ft | 572 kts | 79° |
| 2026-05-05 03:24 | 34.58795 | -112.91474 | 34875 ft | 573 kts | 78° |
| 2026-05-05 03:25 | 34.61232 | -112.82271 | 34883 ft | 574 kts | 79° |